Time;durP1;ratioP1;P1;durP2;ratioP2;P2;SDS_P1;SDS_P2;PMS_P1;PMS_P2;Temp;Humidity;BMP_temperature;BMP_pressure;BME280_temperature;BME280_humidity;BME280_pressure;Samples;Min_cycle;Max_cycle;Signal;HPM_P1;HPM_P2
2022/10/24 00:00:30;;;;;;;86.97;48.27;;;;;;;;;;4958892;28;20177;-36
2022/10/24 00:02:56;;;;;;;86.33;49.47;;;;;;;;;;4956230;28;20179;-36
2022/10/24 00:05:23;;;;;;;74.33;47.33;;;;;;;;;;4953644;28;20603;-36
2022/10/24 00:07:49;;;;;;;84.13;48.87;;;;;;;;;;4956032;28;20263;-36
2022/10/24 00:10:16;;;;;;;73.03;45.83;;;;;;;;;;4956955;28;20193;-36
2022/10/24 00:12:43;;;;;;;85.03;47.50;;;;;;;;;;4953835;28;20186;-36
2022/10/24 00:15:09;;;;;;;90.37;49.23;;;;;;;;;;4952677;28;20207;-37
2022/10/24 00:17:35;;;;;;;100.43;52.50;;;;;;;;;;4958703;28;20493;-36
2022/10/24 00:20:01;;;;;;;96.43;52.03;;;;;;;;;;4957781;28;20285;-37
2022/10/24 00:22:28;;;;;;;78.73;47.57;;;;;;;;;;4957084;28;20405;-36
2022/10/24 00:24:54;;;;;;;76.47;46.43;;;;;;;;;;4954103;28;20810;-36
2022/10/24 00:27:20;;;;;;;98.00;51.87;;;;;;;;;;4958373;28;20443;-36
2022/10/24 00:29:46;;;;;;;79.00;46.40;;;;;;;;;;4956355;28;20236;-36
2022/10/24 00:32:13;;;;;;;84.80;47.33;;;;;;;;;;4957280;28;20190;-36
2022/10/24 00:34:39;;;;;;;77.70;46.47;;;;;;;;;;4957099;28;20198;-36
2022/10/24 00:37:05;;;;;;;77.73;46.20;;;;;;;;;;4955543;28;21248;-36
2022/10/24 00:39:32;;;;;;;77.73;46.73;;;;;;;;;;4956355;28;20182;-36
2022/10/24 00:41:58;;;;;;;86.50;49.37;;;;;;;;;;4949766;28;20182;-37
2022/10/24 00:44:28;;;;;;;98.23;47.60;;;;;;;;;;4958684;28;20178;-36
2022/10/24 00:47:06;;;;;;;103.63;49.13;;;;;;;;;;4957944;28;20368;-36
2022/10/24 00:49:47;;;;;;;103.20;49.57;;;;;;;;;;4957893;28;20186;-37
2022/10/24 00:52:16;;;;;;;107.80;51.03;;;;;;;;;;4949244;28;20862;-36
2022/10/24 00:54:42;;;;;;;106.00;50.13;;;;;;;;;;4960315;28;21035;-37
2022/10/24 00:57:13;;;;;;;136.33;58.17;;;;;;;;;;4962868;28;20304;-37
2022/10/24 00:59:41;;;;;;;137.70;57.23;;;;;;;;;;4961857;28;20170;-37
2022/10/24 01:02:07;;;;;;;121.10;55.20;;;;;;;;;;4955911;28;20236;-36
2022/10/24 01:04:33;;;;;;;118.50;53.87;;;;;;;;;;4950020;28;20662;-37
2022/10/24 01:07:02;;;;;;;126.93;56.87;;;;;;;;;;4942362;28;20539;-38
2022/10/24 01:09:38;;;;;;;117.90;54.00;;;;;;;;;;4950535;28;20634;-37
2022/10/24 01:12:13;;;;;;;171.53;62.63;;;;;;;;;;4955824;28;20186;-36
2022/10/24 01:14:45;;;;;;;133.30;56.87;;;;;;;;;;4957685;28;20677;-37
2022/10/24 01:17:25;;;;;;;168.10;64.83;;;;;;;;;;4954379;28;20355;-36
2022/10/24 01:20:09;;;;;;;136.90;57.37;;;;;;;;;;4954337;28;20531;-38
2022/10/24 01:22:35;;;;;;;145.23;59.23;;;;;;;;;;4959283;28;20753;-37
2022/10/24 01:25:02;;;;;;;185.83;65.10;;;;;;;;;;4957664;28;20205;-38
2022/10/24 01:27:47;;;;;;;141.70;57.83;;;;;;;;;;4958356;28;20754;-37
2022/10/24 01:30:14;;;;;;;192.70;67.73;;;;;;;;;;4958782;28;20630;-36
2022/10/24 01:32:40;;;;;;;223.73;72.50;;;;;;;;;;4957166;28;20447;-37
2022/10/24 01:35:22;;;;;;;211.50;73.77;;;;;;;;;;4956355;28;20873;-37
2022/10/24 01:37:59;;;;;;;159.63;62.10;;;;;;;;;;4955417;28;20176;-37
2022/10/24 01:40:44;;;;;;;157.90;64.67;;;;;;;;;;4950657;28;20294;-37
2022/10/24 01:43:11;;;;;;;164.80;62.73;;;;;;;;;;4940260;28;20182;-37
2022/10/24 01:45:38;;;;;;;158.47;62.63;;;;;;;;;;4952626;28;20191;-37
2022/10/24 01:48:07;;;;;;;163.20;63.87;;;;;;;;;;4957864;28;20803;-36
2022/10/24 01:50:35;;;;;;;143.23;59.73;;;;;;;;;;4955888;28;20179;-37
2022/10/24 01:53:02;;;;;;;131.07;57.90;;;;;;;;;;4957116;28;21047;-37
2022/10/24 01:55:29;;;;;;;138.47;60.57;;;;;;;;;;4950873;28;20625;-36
2022/10/24 01:57:55;;;;;;;136.53;59.73;;;;;;;;;;4957625;28;20201;-37
2022/10/24 02:00:22;;;;;;;120.07;54.47;;;;;;;;;;4957438;28;20811;-37
2022/10/24 02:02:52;;;;;;;144.60;59.93;;;;;;;;;;4954039;28;20250;-37
2022/10/24 02:05:21;;;;;;;113.87;53.77;;;;;;;;;;4959106;28;20261;-37
2022/10/24 02:07:48;;;;;;;147.67;60.53;;;;;;;;;;4959984;28;20497;-37
2022/10/24 02:10:44;;;;;;;126.60;58.13;;;;;;;;;;4959403;28;20193;-37
2022/10/24 02:13:25;;;;;;;127.63;57.50;;;;;;;;;;4951358;28;20202;-38
2022/10/24 02:15:52;;;;;;;187.30;68.80;;;;;;;;;;4956604;28;20208;-37
2022/10/24 02:18:19;;;;;;;188.13;73.00;;;;;;;;;;4958592;28;20496;-37
2022/10/24 02:20:57;;;;;;;142.20;60.33;;;;;;;;;;4957841;28;20526;-37
2022/10/24 02:23:42;;;;;;;138.00;61.97;;;;;;;;;;4955430;28;20531;-37
2022/10/24 02:26:14;;;;;;;374.20;82.07;;;;;;;;;;4958231;28;20966;-38
2022/10/24 02:28:42;;;;;;;202.23;71.50;;;;;;;;;;4961293;28;20748;-37
2022/10/24 02:31:11;;;;;;;160.93;67.20;;;;;;;;;;4956678;28;20209;-37
2022/10/24 02:33:39;;;;;;;189.27;71.10;;;;;;;;;;4955465;28;20628;-37
2022/10/24 02:36:06;;;;;;;151.63;66.53;;;;;;;;;;4958867;28;20193;-38
2022/10/24 02:38:35;;;;;;;143.93;65.27;;;;;;;;;;4956590;28;20205;-37
2022/10/24 02:41:04;;;;;;;136.90;62.10;;;;;;;;;;4957700;28;20194;-37
2022/10/24 02:43:31;;;;;;;377.70;87.87;;;;;;;;;;4961802;28;20710;-37
2022/10/24 02:45:58;;;;;;;285.00;81.13;;;;;;;;;;4958598;28;20741;-37
2022/10/24 02:48:28;;;;;;;139.63;62.17;;;;;;;;;;4954440;28;20353;-37
2022/10/24 02:50:54;;;;;;;129.70;59.83;;;;;;;;;;4954922;28;20325;-37
2022/10/24 02:53:21;;;;;;;118.07;58.67;;;;;;;;;;4959310;28;20178;-37
2022/10/24 02:55:47;;;;;;;127.17;62.43;;;;;;;;;;4956959;28;20204;-38
2022/10/24 02:58:13;;;;;;;95.07;51.90;;;;;;;;;;4957231;28;20260;-38
2022/10/24 03:00:39;;;;;;;117.80;59.80;;;;;;;;;;4958020;28;20212;-38
2022/10/24 03:03:05;;;;;;;114.53;57.43;;;;;;;;;;4961714;28;20232;-37
2022/10/24 03:05:31;;;;;;;83.53;49.17;;;;;;;;;;4955363;28;20653;-35
2022/10/24 03:07:57;;;;;;;94.67;53.13;;;;;;;;;;4959258;28;20197;-36
2022/10/24 03:10:24;;;;;;;85.90;51.83;;;;;;;;;;4956075;28;20464;-36
2022/10/24 03:12:50;;;;;;;96.23;52.73;;;;;;;;;;4959955;28;20189;-36
2022/10/24 03:15:16;;;;;;;133.10;53.33;;;;;;;;;;4958740;28;20204;-36
2022/10/24 03:17:42;;;;;;;97.43;50.77;;;;;;;;;;4956441;28;20179;-37
2022/10/24 03:20:08;;;;;;;99.23;48.77;;;;;;;;;;4958269;28;20182;-36
2022/10/24 03:22:35;;;;;;;171.33;55.83;;;;;;;;;;4955353;28;20609;-36
2022/10/24 03:25:02;;;;;;;184.50;54.87;;;;;;;;;;4957096;28;20186;-36
2022/10/24 03:27:29;;;;;;;71.83;45.00;;;;;;;;;;4956224;28;20182;-37
2022/10/24 03:29:55;;;;;;;57.57;37.80;;;;;;;;;;4961147;28;20193;-36
2022/10/24 03:32:21;;;;;;;181.80;50.37;;;;;;;;;;4959157;28;21189;-36
2022/10/24 03:34:47;;;;;;;100.97;52.57;;;;;;;;;;4957164;28;20419;-36
2022/10/24 03:37:13;;;;;;;74.23;41.63;;;;;;;;;;4958248;28;20185;-36
2022/10/24 03:39:39;;;;;;;122.77;46.33;;;;;;;;;;4960875;28;20421;-36
2022/10/24 03:42:06;;;;;;;181.03;51.50;;;;;;;;;;4950778;28;22321;-36
2022/10/24 03:44:32;;;;;;;56.50;40.23;;;;;;;;;;4957085;28;20492;-37
2022/10/24 03:46:58;;;;;;;105.60;48.67;;;;;;;;;;4961229;28;20674;-36
2022/10/24 03:49:24;;;;;;;68.20;43.83;;;;;;;;;;4956944;28;20183;-37
2022/10/24 03:51:50;;;;;;;51.67;37.97;;;;;;;;;;4955126;28;20964;-37
2022/10/24 03:54:16;;;;;;;59.87;40.97;;;;;;;;;;4958955;28;20681;-36
2022/10/24 03:56:43;;;;;;;56.73;38.50;;;;;;;;;;4955039;28;20174;-36
2022/10/24 03:59:09;;;;;;;57.93;38.47;;;;;;;;;;4952946;28;20174;-36
2022/10/24 04:01:35;;;;;;;49.23;38.17;;;;;;;;;;4958030;28;20170;-36
2022/10/24 04:04:01;;;;;;;49.17;36.30;;;;;;;;;;4960197;28;20174;-35
2022/10/24 04:06:27;;;;;;;70.53;43.13;;;;;;;;;;4957703;28;20221;-36
2022/10/24 04:08:54;;;;;;;48.07;35.87;;;;;;;;;;4951292;28;20490;-36
2022/10/24 04:11:20;;;;;;;44.03;35.37;;;;;;;;;;4952742;28;20229;-36
2022/10/24 04:13:47;;;;;;;57.17;33.30;;;;;;;;;;4960449;28;20308;-35
2022/10/24 04:16:13;;;;;;;87.93;41.60;;;;;;;;;;4963589;28;20296;-35
2022/10/24 04:18:39;;;;;;;46.30;34.63;;;;;;;;;;4960347;28;20729;-36
2022/10/24 04:21:05;;;;;;;42.13;33.17;;;;;;;;;;4964675;28;20170;-36
2022/10/24 04:23:34;;;;;;;50.60;37.33;;;;;;;;;;4964214;28;20176;-35
2022/10/24 04:26:00;;;;;;;49.73;36.80;;;;;;;;;;4961139;28;20622;-35
2022/10/24 04:28:28;;;;;;;46.37;35.33;;;;;;;;;;4960010;28;20197;-35
2022/10/24 04:30:57;;;;;;;46.77;35.70;;;;;;;;;;4964926;28;20397;-36
2022/10/24 04:33:24;;;;;;;50.23;36.63;;;;;;;;;;4960869;28;21135;-36
2022/10/24 04:35:50;;;;;;;49.30;36.27;;;;;;;;;;4956423;28;20718;-37
2022/10/24 04:38:16;;;;;;;101.10;47.27;;;;;;;;;;4958621;28;20216;-36
2022/10/24 04:40:49;;;;;;;50.87;37.40;;;;;;;;;;4960531;28;20175;-36
2022/10/24 04:43:15;;;;;;;50.90;36.33;;;;;;;;;;4961470;28;20809;-36
2022/10/24 04:45:42;;;;;;;45.17;35.30;;;;;;;;;;4955671;28;20509;-36
2022/10/24 04:48:08;;;;;;;44.47;34.10;;;;;;;;;;4958613;28;20300;-36
2022/10/24 04:50:34;;;;;;;48.90;36.20;;;;;;;;;;4959594;28;20962;-36
2022/10/24 04:53:00;;;;;;;41.70;32.50;;;;;;;;;;4955276;28;20178;-36
2022/10/24 04:55:27;;;;;;;45.23;32.77;;;;;;;;;;4958689;28;20391;-36
2022/10/24 04:57:53;;;;;;;60.17;37.63;;;;;;;;;;4958191;28;20178;-36
2022/10/24 05:00:19;;;;;;;60.80;38.63;;;;;;;;;;4959097;28;20551;-36
2022/10/24 05:02:45;;;;;;;45.13;34.30;;;;;;;;;;4961238;28;20232;-36
2022/10/24 05:05:11;;;;;;;48.53;35.97;;;;;;;;;;4958435;28;20499;-36
2022/10/24 05:07:37;;;;;;;45.33;34.20;;;;;;;;;;4961326;28;20777;-36
2022/10/24 05:10:04;;;;;;;63.37;39.90;;;;;;;;;;4960502;28;20292;-36
2022/10/24 05:12:30;;;;;;;59.43;39.90;;;;;;;;;;4955686;28;20248;-36
2022/10/24 05:14:56;;;;;;;55.40;37.47;;;;;;;;;;4956962;28;20856;-36
2022/10/24 05:17:22;;;;;;;58.20;39.63;;;;;;;;;;4962548;28;20459;-36
2022/10/24 05:19:48;;;;;;;43.90;34.10;;;;;;;;;;4960041;28;20182;-36
2022/10/24 05:22:15;;;;;;;43.23;33.57;;;;;;;;;;4959382;28;20841;-36
2022/10/24 05:24:41;;;;;;;48.30;35.40;;;;;;;;;;4956552;28;20182;-36
2022/10/24 05:27:07;;;;;;;46.60;34.03;;;;;;;;;;4957576;28;20186;-36
2022/10/24 05:29:33;;;;;;;89.43;45.20;;;;;;;;;;4960338;28;20616;-36
2022/10/24 05:31:59;;;;;;;46.83;35.27;;;;;;;;;;4956106;28;20185;-36
2022/10/24 05:34:26;;;;;;;50.23;37.27;;;;;;;;;;4954417;28;20201;-36
2022/10/24 05:36:52;;;;;;;61.77;40.90;;;;;;;;;;4961673;28;20179;-36
2022/10/24 05:39:18;;;;;;;48.83;34.80;;;;;;;;;;4960335;28;20174;-37
2022/10/24 05:41:44;;;;;;;74.03;39.07;;;;;;;;;;4955222;28;20454;-36
2022/10/24 05:44:11;;;;;;;45.07;33.33;;;;;;;;;;4956635;28;20302;-36
2022/10/24 05:46:37;;;;;;;55.73;39.87;;;;;;;;;;4958139;28;20175;-36
2022/10/24 05:49:03;;;;;;;54.13;37.93;;;;;;;;;;4958495;28;20178;-36
2022/10/24 05:51:30;;;;;;;46.60;34.97;;;;;;;;;;4957585;28;20209;-36
2022/10/24 05:53:57;;;;;;;52.17;37.87;;;;;;;;;;4958977;28;20436;-36
2022/10/24 05:56:23;;;;;;;77.47;42.37;;;;;;;;;;4957160;28;20175;-36
2022/10/24 05:58:49;;;;;;;39.03;31.67;;;;;;;;;;4959776;28;20710;-36
2022/10/24 06:01:15;;;;;;;51.33;33.27;;;;;;;;;;4958681;28;20233;-36
2022/10/24 06:03:42;;;;;;;43.73;34.23;;;;;;;;;;4956722;28;20178;-36
2022/10/24 06:06:08;;;;;;;63.57;32.23;;;;;;;;;;4958908;28;20604;-36
2022/10/24 06:08:35;;;;;;;62.40;28.50;;;;;;;;;;4958814;28;20579;-36
2022/10/24 06:11:01;;;;;;;40.67;30.60;;;;;;;;;;4955111;28;20182;-36
2022/10/24 06:13:27;;;;;;;61.57;37.67;;;;;;;;;;4957870;28;20326;-35
2022/10/24 06:15:53;;;;;;;57.10;36.83;;;;;;;;;;4957547;28;20397;-36
2022/10/24 06:18:19;;;;;;;50.63;35.77;;;;;;;;;;4958327;28;20177;-36
2022/10/24 06:20:46;;;;;;;53.03;34.13;;;;;;;;;;4957668;28;20539;-36
2022/10/24 06:23:12;;;;;;;52.53;33.67;;;;;;;;;;4960528;28;20193;-36
2022/10/24 06:25:40;;;;;;;46.63;32.47;;;;;;;;;;4959295;28;20600;-36
2022/10/24 06:28:06;;;;;;;77.87;36.40;;;;;;;;;;4960185;28;20197;-36
2022/10/24 06:30:33;;;;;;;44.03;33.63;;;;;;;;;;4957497;28;20708;-36
2022/10/24 06:33:00;;;;;;;53.77;34.47;;;;;;;;;;4960659;28;20182;-36
2022/10/24 06:35:26;;;;;;;40.43;32.07;;;;;;;;;;4955462;28;20202;-36
2022/10/24 06:37:52;;;;;;;48.03;33.93;;;;;;;;;;4953816;28;20187;-36
2022/10/24 06:40:18;;;;;;;53.10;31.00;;;;;;;;;;4957741;28;20738;-35
2022/10/24 06:42:45;;;;;;;57.40;32.73;;;;;;;;;;4962042;28;20566;-36
2022/10/24 06:45:11;;;;;;;72.40;35.23;;;;;;;;;;4955761;28;20664;-36
2022/10/24 06:47:37;;;;;;;73.97;32.90;;;;;;;;;;4955836;28;20579;-36
2022/10/24 06:50:04;;;;;;;71.37;35.07;;;;;;;;;;4958189;28;20472;-36
2022/10/24 06:52:30;;;;;;;56.33;32.50;;;;;;;;;;4957961;28;20182;-35
2022/10/24 06:54:56;;;;;;;45.10;32.93;;;;;;;;;;4955886;28;20456;-36
2022/10/24 06:57:22;;;;;;;48.47;33.73;;;;;;;;;;4949982;28;20182;-36
2022/10/24 06:59:48;;;;;;;47.30;33.93;;;;;;;;;;4959942;28;20278;-36
2022/10/24 07:02:16;;;;;;;40.40;32.20;;;;;;;;;;4953849;28;20499;-36
2022/10/24 07:04:42;;;;;;;80.47;39.77;;;;;;;;;;4957962;28;20182;-36
2022/10/24 07:07:13;;;;;;;46.03;32.77;;;;;;;;;;4952393;28;20217;-36
2022/10/24 07:09:39;;;;;;;51.43;36.53;;;;;;;;;;4948056;28;20647;-36
2022/10/24 07:12:05;;;;;;;45.87;33.00;;;;;;;;;;4944296;28;20197;-36
2022/10/24 07:14:31;;;;;;;44.23;32.97;;;;;;;;;;4946901;28;20293;-36
2022/10/24 07:16:57;;;;;;;55.70;38.03;;;;;;;;;;4946065;28;20385;-36
2022/10/24 07:19:23;;;;;;;46.80;34.90;;;;;;;;;;4946314;28;20249;-36
2022/10/24 07:21:49;;;;;;;47.67;34.93;;;;;;;;;;4944276;28;20569;-36
2022/10/24 07:24:15;;;;;;;42.40;31.17;;;;;;;;;;4942985;28;20626;-36
2022/10/24 07:26:42;;;;;;;63.50;38.67;;;;;;;;;;4939715;28;20185;-36
2022/10/24 07:29:08;;;;;;;44.57;31.43;;;;;;;;;;4945411;28;20248;-36
2022/10/24 07:31:35;;;;;;;61.23;38.10;;;;;;;;;;4948565;28;20179;-35
2022/10/24 07:34:02;;;;;;;47.50;31.53;;;;;;;;;;4957271;28;20234;-35
2022/10/24 07:36:29;;;;;;;49.97;35.00;;;;;;;;;;4953795;28;20276;-36
2022/10/24 07:38:56;;;;;;;63.27;39.87;;;;;;;;;;4953486;28;20350;-35
2022/10/24 07:41:23;;;;;;;48.67;34.23;;;;;;;;;;4955523;28;20233;-36
2022/10/24 07:43:50;;;;;;;63.67;39.90;;;;;;;;;;4952468;28;20286;-36
2022/10/24 07:46:17;;;;;;;50.03;36.33;;;;;;;;;;4952747;28;20584;-36
2022/10/24 07:48:43;;;;;;;73.70;43.87;;;;;;;;;;4955458;28;20197;-36
2022/10/24 07:51:10;;;;;;;55.80;37.93;;;;;;;;;;4959793;28;20190;-36
2022/10/24 07:53:37;;;;;;;54.20;37.23;;;;;;;;;;4949373;28;20213;-36
2022/10/24 07:56:09;;;;;;;56.67;38.07;;;;;;;;;;4947254;28;20216;-35
2022/10/24 07:58:36;;;;;;;87.33;44.37;;;;;;;;;;4948834;28;20286;-36
2022/10/24 08:01:04;;;;;;;71.63;42.93;;;;;;;;;;4950700;28;20628;-36
2022/10/24 08:03:30;;;;;;;79.97;44.97;;;;;;;;;;4945987;28;20181;-36
2022/10/24 08:05:56;;;;;;;73.60;44.30;;;;;;;;;;4947105;28;20192;-36
2022/10/24 08:08:22;;;;;;;57.67;39.90;;;;;;;;;;4948810;28;20297;-36
2022/10/24 08:10:48;;;;;;;65.57;42.80;;;;;;;;;;4945156;28;20727;-36
2022/10/24 08:13:14;;;;;;;60.83;41.17;;;;;;;;;;4949621;28;21072;-36
2022/10/24 08:15:40;;;;;;;58.93;38.40;;;;;;;;;;4947833;28;20190;-36
2022/10/24 08:18:06;;;;;;;62.70;42.17;;;;;;;;;;4945925;28;20202;-36
2022/10/24 08:20:33;;;;;;;79.80;45.90;;;;;;;;;;4959352;28;20178;-36
2022/10/24 08:22:59;;;;;;;65.23;42.10;;;;;;;;;;4952907;28;20186;-36
2022/10/24 08:25:25;;;;;;;57.47;41.23;;;;;;;;;;4948929;28;20213;-36
2022/10/24 08:27:51;;;;;;;60.93;41.73;;;;;;;;;;4947396;28;20179;-36
2022/10/24 08:30:19;;;;;;;63.70;41.60;;;;;;;;;;4947739;28;20201;-36
2022/10/24 08:32:45;;;;;;;74.40;45.27;;;;;;;;;;4949954;28;20194;-36
2022/10/24 08:35:12;;;;;;;63.67;42.03;;;;;;;;;;4949727;28;20213;-36
2022/10/24 08:37:38;;;;;;;59.67;41.17;;;;;;;;;;4948437;28;20818;-36
2022/10/24 08:40:06;;;;;;;59.83;41.47;;;;;;;;;;4952969;28;20275;-36
2022/10/24 08:42:33;;;;;;;58.13;40.20;;;;;;;;;;4947678;28;20755;-36
2022/10/24 08:44:59;;;;;;;79.10;48.50;;;;;;;;;;4949847;28;20707;-36
2022/10/24 08:47:39;;;;;;;84.07;50.03;;;;;;;;;;4951373;28;20693;-36
2022/10/24 08:50:05;;;;;;;60.30;40.57;;;;;;;;;;4948389;28;20193;-36
2022/10/24 08:52:40;;;;;;;83.77;48.00;;;;;;;;;;4949154;28;20386;-36
2022/10/24 08:55:12;;;;;;;84.37;48.23;;;;;;;;;;4951596;28;20201;-36
2022/10/24 08:57:39;;;;;;;80.87;49.80;;;;;;;;;;4949475;28;20606;-35
2022/10/24 09:00:15;;;;;;;75.97;48.00;;;;;;;;;;4949987;28;20503;-36
2022/10/24 09:02:42;;;;;;;76.70;47.27;;;;;;;;;;4951313;28;20182;-36
2022/10/24 09:05:24;;;;;;;65.37;44.17;;;;;;;;;;4955152;28;20478;-37
2022/10/24 09:07:53;;;;;;;67.30;44.03;;;;;;;;;;4956118;28;20450;-36
2022/10/24 09:10:22;;;;;;;75.33;46.77;;;;;;;;;;4963138;28;20174;-36
2022/10/24 09:12:48;;;;;;;90.73;51.90;;;;;;;;;;4957725;28;20202;-36
2022/10/24 09:15:16;;;;;;;102.57;54.87;;;;;;;;;;4958956;28;20197;-36
2022/10/24 09:17:43;;;;;;;83.93;49.60;;;;;;;;;;4956259;28;20570;-36
2022/10/24 09:20:12;;;;;;;96.23;54.43;;;;;;;;;;4957526;28;20630;-36
2022/10/24 09:22:38;;;;;;;80.83;49.53;;;;;;;;;;4962664;28;20446;-36
2022/10/24 09:25:06;;;;;;;88.50;52.47;;;;;;;;;;4961054;28;20178;-36
2022/10/24 09:27:37;;;;;;;93.07;50.53;;;;;;;;;;4958743;28;20223;-35
2022/10/24 09:30:03;;;;;;;81.70;51.00;;;;;;;;;;4961946;28;20740;-36
2022/10/24 09:32:30;;;;;;;69.80;46.97;;;;;;;;;;4960022;28;20178;-36
2022/10/24 09:35:01;;;;;;;81.77;51.17;;;;;;;;;;4956637;28;20643;-36
2022/10/24 09:37:35;;;;;;;72.87;47.47;;;;;;;;;;4956005;28;20201;-36
2022/10/24 09:40:07;;;;;;;67.07;47.10;;;;;;;;;;4959072;28;20209;-36
2022/10/24 09:42:36;;;;;;;69.43;46.37;;;;;;;;;;4956493;28;20236;-35
2022/10/24 09:45:17;;;;;;;80.10;48.47;;;;;;;;;;4955760;28;20229;-36
2022/10/24 09:47:43;;;;;;;83.37;50.13;;;;;;;;;;4957451;28;20390;-35
2022/10/24 09:50:22;;;;;;;80.47;50.23;;;;;;;;;;4957706;28;20241;-36
2022/10/24 09:52:53;;;;;;;65.63;44.30;;;;;;;;;;4958370;28;20174;-36
2022/10/24 09:55:26;;;;;;;65.57;45.30;;;;;;;;;;4956677;28;20639;-36
2022/10/24 09:57:53;;;;;;;61.70;43.67;;;;;;;;;;4957622;28;20190;-36
2022/10/24 10:00:21;;;;;;;59.87;42.47;;;;;;;;;;4957495;28;20194;-36
2022/10/24 10:02:57;;;;;;;70.90;44.87;;;;;;;;;;4957757;28;20671;-35
2022/10/24 10:05:23;;;;;;;58.00;42.17;;;;;;;;;;4960375;28;20178;-36
2022/10/24 10:07:50;;;;;;;61.13;42.37;;;;;;;;;;4960514;28;20193;-36
2022/10/24 10:10:27;;;;;;;63.20;44.73;;;;;;;;;;4960010;28;20618;-36
2022/10/24 10:12:56;;;;;;;58.40;41.80;;;;;;;;;;4950526;28;20788;-36
2022/10/24 10:15:28;;;;;;;60.57;42.97;;;;;;;;;;4950656;28;20194;-36
2022/10/24 10:17:56;;;;;;;61.27;41.83;;;;;;;;;;4951135;28;20182;-36
2022/10/24 10:20:39;;;;;;;55.07;40.80;;;;;;;;;;4945514;28;20186;-36
2022/10/24 10:23:24;;;;;;;56.37;39.83;;;;;;;;;;4949053;28;20768;-35
2022/10/24 10:26:00;;;;;;;56.90;41.00;;;;;;;;;;4946914;28;20189;-36
2022/10/24 10:28:26;;;;;;;52.83;37.13;;;;;;;;;;4952905;28;20760;-36
2022/10/24 10:30:55;;;;;;;57.33;41.23;;;;;;;;;;4960403;28;20677;-36
2022/10/24 10:33:32;;;;;;;53.43;39.27;;;;;;;;;;4960270;28;20182;-36
2022/10/24 10:36:07;;;;;;;53.03;39.53;;;;;;;;;;4960164;28;20507;-36
2022/10/24 10:38:42;;;;;;;54.83;40.70;;;;;;;;;;4960116;28;20181;-36
2022/10/24 10:41:14;;;;;;;56.67;40.83;;;;;;;;;;4960567;28;20251;-36
2022/10/24 10:43:50;;;;;;;57.07;41.93;;;;;;;;;;4955528;28;20182;-36
2022/10/24 10:46:34;;;;;;;54.67;40.67;;;;;;;;;;4961384;28;20260;-37
2022/10/24 10:49:05;;;;;;;50.57;39.00;;;;;;;;;;4960989;28;21025;-36
2022/10/24 10:51:39;;;;;;;58.20;41.60;;;;;;;;;;4956707;28;20185;-37
2022/10/24 10:54:19;;;;;;;56.53;41.47;;;;;;;;;;4956230;28;20209;-37
2022/10/24 10:56:49;;;;;;;50.27;37.43;;;;;;;;;;4948603;28;20185;-37
2022/10/24 10:59:15;;;;;;;50.27;37.90;;;;;;;;;;4953028;28;20258;-36
2022/10/24 11:01:50;;;;;;;48.67;38.63;;;;;;;;;;4953365;28;20473;-36
2022/10/24 11:04:35;;;;;;;48.67;37.80;;;;;;;;;;4949003;28;20182;-36
2022/10/24 11:07:20;;;;;;;46.00;37.33;;;;;;;;;;4945604;28;20189;-37
2022/10/24 11:09:46;;;;;;;53.13;40.60;;;;;;;;;;4944386;28;20183;-37
2022/10/24 11:12:33;;;;;;;56.70;40.60;;;;;;;;;;4936501;28;20260;-36
2022/10/24 11:15:02;;;;;;;47.57;37.03;;;;;;;;;;4942460;28;20233;-36
2022/10/24 11:17:31;;;;;;;52.70;40.33;;;;;;;;;;4946564;28;20186;-37
2022/10/24 11:20:03;;;;;;;54.50;39.23;;;;;;;;;;4944061;28;20500;-36
2022/10/24 11:22:33;;;;;;;46.17;36.87;;;;;;;;;;4946471;28;20182;-36
2022/10/24 11:25:08;;;;;;;47.33;36.37;;;;;;;;;;4946505;28;20270;-36
2022/10/24 11:27:43;;;;;;;56.60;40.43;;;;;;;;;;4945446;28;20632;-36
2022/10/24 11:30:16;;;;;;;48.70;37.30;;;;;;;;;;4948781;28;20206;-36
2022/10/24 11:32:45;;;;;;;47.03;36.50;;;;;;;;;;4948715;28;20185;-36
2022/10/24 11:35:19;;;;;;;41.10;34.57;;;;;;;;;;4947968;28;20210;-36
2022/10/24 11:37:46;;;;;;;51.50;37.80;;;;;;;;;;4945302;28;20281;-37
2022/10/24 11:40:14;;;;;;;48.70;37.30;;;;;;;;;;4950207;28;20444;-37
2022/10/24 11:43:00;;;;;;;45.07;34.63;;;;;;;;;;4948528;28;20186;-36
2022/10/24 11:45:37;;;;;;;49.17;36.70;;;;;;;;;;4946089;28;20179;-37
2022/10/24 11:48:09;;;;;;;46.50;36.10;;;;;;;;;;4947855;28;20349;-36
2022/10/24 11:50:42;;;;;;;50.87;37.40;;;;;;;;;;4952291;28;20182;-36
2022/10/24 11:53:14;;;;;;;53.20;38.70;;;;;;;;;;4950481;28;20175;-36
2022/10/24 11:55:45;;;;;;;56.37;41.93;;;;;;;;;;4948143;28;20245;-37
2022/10/24 11:58:13;;;;;;;46.90;36.87;;;;;;;;;;4945432;28;20749;-37
2022/10/24 12:00:49;;;;;;;52.00;35.57;;;;;;;;;;4951273;28;20171;-36
2022/10/24 12:03:34;;;;;;;58.47;40.33;;;;;;;;;;4947200;28;20178;-36
2022/10/24 12:06:18;;;;;;;52.70;38.07;;;;;;;;;;4941449;28;20304;-36
2022/10/24 12:09:04;;;;;;;52.50;40.00;;;;;;;;;;4945395;28;20833;-37
2022/10/24 12:11:30;;;;;;;49.07;38.80;;;;;;;;;;4945280;28;20856;-36
2022/10/24 12:13:56;;;;;;;51.77;40.13;;;;;;;;;;4960299;28;20762;-36
2022/10/24 12:16:25;;;;;;;52.03;40.17;;;;;;;;;;4954845;28;20479;-35
2022/10/24 12:18:56;;;;;;;57.10;40.33;;;;;;;;;;4961366;28;20179;-36
2022/10/24 12:21:34;;;;;;;49.23;38.90;;;;;;;;;;4958482;28;20325;-37
2022/10/24 12:24:00;;;;;;;50.53;37.33;;;;;;;;;;4940936;28;20388;-37
2022/10/24 12:26:34;;;;;;;52.00;39.00;;;;;;;;;;4948592;28;20761;-37
2022/10/24 12:29:00;;;;;;;53.77;39.97;;;;;;;;;;4946455;28;20839;-36
2022/10/24 12:31:31;;;;;;;49.83;38.87;;;;;;;;;;4943283;28;20647;-36
2022/10/24 12:34:18;;;;;;;49.10;38.70;;;;;;;;;;4946152;28;21430;-37
2022/10/24 12:37:02;;;;;;;51.40;38.07;;;;;;;;;;4944263;28;20191;-36
2022/10/24 12:39:30;;;;;;;50.17;38.43;;;;;;;;;;4944261;28;20608;-36
2022/10/24 12:41:58;;;;;;;54.97;41.50;;;;;;;;;;4946272;28;20290;-36
2022/10/24 12:44:33;;;;;;;57.17;41.33;;;;;;;;;;4947245;28;20318;-36
2022/10/24 12:47:00;;;;;;;51.53;39.43;;;;;;;;;;4946373;28;20773;-36
2022/10/24 12:49:30;;;;;;;53.57;40.13;;;;;;;;;;4949323;28;20422;-36
2022/10/24 12:51:57;;;;;;;52.00;37.93;;;;;;;;;;4947497;28;20182;-36
2022/10/24 12:54:40;;;;;;;51.93;39.73;;;;;;;;;;4941585;28;20268;-37
2022/10/24 12:57:07;;;;;;;51.67;39.63;;;;;;;;;;4947858;28;20209;-36
2022/10/24 12:59:33;;;;;;;53.83;38.67;;;;;;;;;;4957279;28;20186;-36
2022/10/24 13:02:15;;;;;;;53.77;39.47;;;;;;;;;;4951632;28;20182;-37
2022/10/24 13:04:44;;;;;;;50.73;38.90;;;;;;;;;;4940287;28;21551;-37
2022/10/24 13:07:17;;;;;;;53.40;40.07;;;;;;;;;;4941198;28;20194;-36
2022/10/24 13:09:46;;;;;;;51.40;38.60;;;;;;;;;;4945710;28;20991;-36
2022/10/24 13:12:12;;;;;;;49.40;37.07;;;;;;;;;;4943323;28;20225;-36
2022/10/24 13:14:38;;;;;;;52.90;38.00;;;;;;;;;;4943791;28;20213;-35
2022/10/24 13:17:20;;;;;;;47.20;35.97;;;;;;;;;;4946112;28;20186;-35
2022/10/24 13:19:46;;;;;;;51.60;38.87;;;;;;;;;;4956151;28;21108;-35
2022/10/24 13:22:28;;;;;;;49.83;37.87;;;;;;;;;;4956362;28;20174;-36
2022/10/24 13:24:55;;;;;;;51.23;38.13;;;;;;;;;;4958655;28;20221;-36
2022/10/24 13:27:26;;;;;;;51.67;39.97;;;;;;;;;;4949198;28;20661;-36
2022/10/24 13:29:52;;;;;;;54.50;40.30;;;;;;;;;;4944467;28;20512;-35
2022/10/24 13:32:18;;;;;;;48.23;36.67;;;;;;;;;;4944948;28;20362;-36
2022/10/24 13:34:53;;;;;;;51.83;39.17;;;;;;;;;;4950497;28;20209;-36
2022/10/24 13:37:23;;;;;;;54.23;40.87;;;;;;;;;;4948507;28;20957;-36
2022/10/24 13:39:54;;;;;;;57.07;39.57;;;;;;;;;;4957032;28;20485;-36
2022/10/24 13:42:23;;;;;;;49.37;38.30;;;;;;;;;;4956285;28;20543;-36
2022/10/24 13:44:50;;;;;;;58.77;39.77;;;;;;;;;;4957071;28;20178;-36
2022/10/24 13:47:17;;;;;;;53.40;37.53;;;;;;;;;;4950734;28;20189;-36
2022/10/24 13:50:01;;;;;;;51.23;36.90;;;;;;;;;;4958825;28;20296;-36
2022/10/24 13:52:39;;;;;;;54.83;39.87;;;;;;;;;;4958012;28;20186;-36
2022/10/24 13:55:26;;;;;;;54.33;39.43;;;;;;;;;;4958112;28;20209;-36
2022/10/24 13:57:53;;;;;;;48.87;36.77;;;;;;;;;;4954004;28;20305;-35
2022/10/24 14:00:24;;;;;;;55.47;39.70;;;;;;;;;;4955545;28;20193;-36
2022/10/24 14:02:51;;;;;;;48.70;37.23;;;;;;;;;;4959649;28;20599;-36
2022/10/24 14:05:19;;;;;;;50.07;37.53;;;;;;;;;;4952142;28;20178;-36
2022/10/24 14:07:47;;;;;;;49.20;37.30;;;;;;;;;;4955361;28;20297;-36
2022/10/24 14:10:16;;;;;;;48.20;36.33;;;;;;;;;;4955101;28;20179;-36
2022/10/24 14:12:43;;;;;;;51.53;36.53;;;;;;;;;;4952881;28;20186;-36
2022/10/24 14:15:17;;;;;;;48.23;37.07;;;;;;;;;;4956939;28;20726;-36
2022/10/24 14:17:52;;;;;;;45.50;33.73;;;;;;;;;;4957610;28;20637;-36
2022/10/24 14:20:19;;;;;;;54.20;38.53;;;;;;;;;;4960848;28;20609;-36
2022/10/24 14:22:45;;;;;;;54.87;39.67;;;;;;;;;;4955799;28;20182;-36
2022/10/24 14:25:30;;;;;;;54.07;40.53;;;;;;;;;;4949724;28;20347;-37